createdAt,value
2022-08-27T00:01:16.626Z,22.40
2022-08-27T00:03:45.199Z,22.30
2022-08-27T00:06:16.949Z,22.30
2022-08-27T00:08:45.884Z,22.30
2022-08-27T00:11:13.683Z,22.40
2022-08-27T00:13:41.090Z,22.40
2022-08-27T00:16:10.651Z,22.30
2022-08-27T00:18:38.978Z,22.30
2022-08-27T00:21:06.910Z,22.20
2022-08-27T00:23:35.256Z,22.20
2022-08-27T00:26:02.932Z,22.20
2022-08-27T00:28:30.788Z,22.20
2022-08-27T00:30:58.157Z,22.20
2022-08-27T00:33:25.640Z,22.20
2022-08-27T00:35:53.467Z,22.20
2022-08-27T00:38:21.983Z,22.20
2022-08-27T00:40:49.031Z,22.20
2022-08-27T00:43:25.612Z,22.20
2022-08-27T00:45:55.760Z,22.20
2022-08-27T00:48:24.735Z,22.20
2022-08-27T00:50:55.343Z,22.20
2022-08-27T00:53:25.368Z,22.10
2022-08-27T00:56:07.059Z,22.10
2022-08-27T00:58:37.743Z,22.20
2022-08-27T01:01:08.455Z,22.10
2022-08-27T01:03:35.867Z,22.00
2022-08-27T01:06:09.939Z,22.10
2022-08-27T01:08:40.669Z,22.20
2022-08-27T01:11:07.683Z,22.10
2022-08-27T01:13:44.213Z,22.10
2022-08-27T01:16:26.406Z,22.10
2022-08-27T01:18:55.565Z,22.10
2022-08-27T01:21:43.084Z,22.10
2022-08-27T01:24:33.429Z,22.00
2022-08-27T01:27:01.909Z,22.10
2022-08-27T01:29:36.399Z,22.10
2022-08-27T01:32:31.046Z,22.10
2022-08-27T01:34:58.979Z,22.10
2022-08-27T01:37:27.120Z,22.00
2022-08-27T01:39:56.384Z,21.90
2022-08-27T01:42:33.593Z,21.90
2022-08-27T01:45:09.727Z,21.90
2022-08-27T01:47:37.353Z,21.90
2022-08-27T01:50:17.384Z,21.90
2022-08-27T01:52:45.350Z,21.90
2022-08-27T01:55:14.533Z,21.90
2022-08-27T01:57:43.196Z,21.90
2022-08-27T02:00:21.288Z,21.90
2022-08-27T02:02:48.630Z,21.90
2022-08-27T02:05:16.393Z,22.00
2022-08-27T02:07:43.930Z,22.00
2022-08-27T02:10:17.577Z,21.90
2022-08-27T02:12:44.338Z,21.90
2022-08-27T02:15:11.466Z,21.90
2022-08-27T02:17:38.677Z,21.90
2022-08-27T02:20:09.564Z,21.90
2022-08-27T02:22:36.829Z,21.90
2022-08-27T02:25:07.149Z,21.90
2022-08-27T02:27:37.294Z,21.90
2022-08-27T02:30:05.814Z,21.90
2022-08-27T02:32:32.990Z,21.80
2022-08-27T02:35:00.415Z,21.90
2022-08-27T02:37:27.982Z,21.80
2022-08-27T02:39:54.785Z,21.90
2022-08-27T02:42:21.695Z,21.80
2022-08-27T02:44:48.637Z,21.80
2022-08-27T02:47:16.795Z,21.80
2022-08-27T02:49:44.520Z,21.90
2022-08-27T02:52:11.550Z,21.90
2022-08-27T02:54:38.433Z,21.90
2022-08-27T02:57:06.080Z,21.90
2022-08-27T02:59:32.896Z,21.90
2022-08-27T03:02:00.202Z,21.80
2022-08-27T03:04:28.728Z,21.80
2022-08-27T03:06:56.444Z,21.80
2022-08-27T03:09:23.239Z,21.80
2022-08-27T03:11:49.985Z,21.80
2022-08-27T03:14:16.794Z,21.70
2022-08-27T03:16:43.569Z,21.70
2022-08-27T03:19:11.004Z,21.80
2022-08-27T03:21:38.046Z,21.70
2022-08-27T03:24:09.226Z,21.70
2022-08-27T03:26:38.971Z,21.70
2022-08-27T03:29:07.685Z,21.70
2022-08-27T03:31:34.938Z,21.70
2022-08-27T03:34:07.515Z,21.70
2022-08-27T03:36:34.346Z,21.60
2022-08-27T03:39:01.444Z,21.70
2022-08-27T03:41:53.938Z,21.70
2022-08-27T03:44:21.913Z,21.60
2022-08-27T03:46:49.774Z,21.70
2022-08-27T03:49:20.725Z,21.50
2022-08-27T03:51:49.685Z,21.60
2022-08-27T03:54:16.911Z,21.50
2022-08-27T03:56:43.755Z,21.50
2022-08-27T03:59:10.632Z,21.50
2022-08-27T04:01:37.610Z,21.50
2022-08-27T04:04:04.754Z,21.50
2022-08-27T04:06:31.644Z,21.60
2022-08-27T04:08:58.424Z,21.60
2022-08-27T04:11:25.273Z,21.60
2022-08-27T04:13:52.037Z,21.50
2022-08-27T04:16:18.995Z,21.50
2022-08-27T04:18:45.888Z,21.60
2022-08-27T04:21:14.645Z,21.50
2022-08-27T04:23:42.843Z,21.50
2022-08-27T04:26:11.223Z,21.50
2022-08-27T04:28:39.123Z,21.50
2022-08-27T04:31:08.477Z,21.40
2022-08-27T04:33:50.975Z,21.40
2022-08-27T04:36:19.232Z,21.40
2022-08-27T04:38:46.755Z,21.40
2022-08-27T04:41:19.946Z,21.30
2022-08-27T04:43:48.785Z,21.30
2022-08-27T04:46:30.285Z,21.20
2022-08-27T04:48:59.541Z,21.20
2022-08-27T04:51:26.805Z,21.20
2022-08-27T04:53:54.228Z,21.20
2022-08-27T04:56:22.997Z,21.20
2022-08-27T04:58:51.417Z,21.30
2022-08-27T05:01:24.904Z,21.30
2022-08-27T05:03:52.004Z,21.40
2022-08-27T05:06:19.236Z,21.30
2022-08-27T05:08:47.627Z,21.00
2022-08-27T05:11:34.975Z,20.90
2022-08-27T05:14:07.907Z,20.80
2022-08-27T05:16:38.529Z,20.70
2022-08-27T05:19:08.813Z,20.70
2022-08-27T05:21:37.029Z,20.40
2022-08-27T05:24:05.256Z,20.40
2022-08-27T05:26:34.730Z,20.30
2022-08-27T05:29:02.982Z,20.30
2022-08-27T05:31:30.350Z,20.30
2022-08-27T05:33:57.863Z,20.40
2022-08-27T05:36:27.556Z,20.50
2022-08-27T05:38:55.854Z,20.50
2022-08-27T05:41:33.827Z,20.40
2022-08-27T05:44:18.517Z,20.10
2022-08-27T05:46:51.437Z,19.90
2022-08-27T05:49:18.587Z,19.80
2022-08-27T05:51:45.387Z,19.80
2022-08-27T05:54:19.212Z,19.80
2022-08-27T05:56:47.058Z,19.70
2022-08-27T05:59:34.604Z,19.60
2022-08-27T06:02:02.465Z,19.60
2022-08-27T06:04:30.031Z,19.60
2022-08-27T06:06:57.144Z,19.60
2022-08-27T06:09:28.938Z,19.60
2022-08-27T06:11:58.128Z,19.60
2022-08-27T06:14:25.292Z,19.50
2022-08-27T06:16:52.435Z,19.60
2022-08-27T06:19:19.397Z,19.60
2022-08-27T06:21:46.432Z,19.60
2022-08-27T06:24:27.455Z,19.60
2022-08-27T06:26:54.371Z,19.90
2022-08-27T06:29:23.751Z,20.20
2022-08-27T06:31:52.568Z,20.30
2022-08-27T06:34:19.461Z,20.30
2022-08-27T06:36:46.727Z,20.30
2022-08-27T06:39:15.593Z,20.40
2022-08-27T06:41:44.124Z,20.50
2022-08-27T06:44:11.713Z,20.40
2022-08-27T06:46:39.120Z,20.40
2022-08-27T06:49:06.875Z,20.30
2022-08-27T06:51:38.183Z,20.30
2022-08-27T06:54:10.498Z,20.30
2022-08-27T06:56:39.033Z,20.30
2022-08-27T06:59:11.600Z,20.30
2022-08-27T07:01:41.589Z,20.40
2022-08-27T07:04:11.764Z,20.30
2022-08-27T07:06:40.598Z,20.60
2022-08-27T07:09:08.718Z,20.70
2022-08-27T07:11:36.521Z,20.90
2022-08-27T07:14:03.696Z,20.90
2022-08-27T07:16:31.935Z,20.90
2022-08-27T07:19:04.084Z,21.20
2022-08-27T07:21:32.507Z,21.10
2022-08-27T07:24:04.634Z,21.00
2022-08-27T07:26:34.875Z,20.90
2022-08-27T07:29:03.181Z,21.10
2022-08-27T07:31:30.026Z,21.00
2022-08-27T07:33:57.069Z,21.00
2022-08-27T07:36:24.265Z,20.90
2022-08-27T07:38:55.550Z,20.80
2022-08-27T07:41:30.674Z,21.00
2022-08-27T07:44:18.414Z,20.80
2022-08-27T07:46:47.945Z,20.80
2022-08-27T07:49:19.213Z,20.40
2022-08-27T07:51:46.074Z,20.40
2022-08-27T07:54:12.898Z,20.40
2022-08-27T07:56:40.803Z,20.60
2022-08-27T07:59:08.309Z,20.50
2022-08-27T08:01:36.573Z,20.80
2022-08-27T08:04:03.873Z,20.90
2022-08-27T08:06:31.302Z,20.60
2022-08-27T08:08:59.932Z,20.50
2022-08-27T08:11:26.969Z,20.40
2022-08-27T08:13:54.049Z,20.30
2022-08-27T08:16:28.337Z,20.20
2022-08-27T08:19:00.270Z,20.40
2022-08-27T08:21:29.655Z,20.60
2022-08-27T08:23:56.522Z,20.70
2022-08-27T08:26:24.003Z,20.60
2022-08-27T08:28:50.997Z,20.70
2022-08-27T08:31:18.862Z,20.70
2022-08-27T08:33:48.720Z,20.90
2022-08-27T08:36:17.448Z,20.90
2022-08-27T08:38:46.152Z,20.80
2022-08-27T08:41:28.108Z,21.00
2022-08-27T08:44:04.800Z,21.10
2022-08-27T08:46:45.157Z,21.00
2022-08-27T08:49:41.351Z,21.20
2022-08-27T08:52:30.805Z,21.30
2022-08-27T08:55:19.790Z,21.10
2022-08-27T08:57:54.587Z,21.00
2022-08-27T09:00:21.702Z,21.00
2022-08-27T09:02:54.587Z,21.10
2022-08-27T09:05:27.328Z,21.10
2022-08-27T09:08:28.898Z,21.00
2022-08-27T09:11:16.885Z,20.90
2022-08-27T09:13:59.727Z,20.90
2022-08-27T09:16:27.867Z,21.10
2022-08-27T09:18:55.279Z,20.70
2022-08-27T09:21:49.610Z,20.70
2022-08-27T09:25:05.664Z,20.70
2022-08-27T09:27:34.886Z,21.00
2022-08-27T09:30:07.826Z,21.30
2022-08-27T09:32:35.783Z,21.40
2022-08-27T09:35:07.629Z,21.10
2022-08-27T09:37:45.931Z,21.40
2022-08-27T09:40:49.425Z,21.50
2022-08-27T09:43:16.989Z,21.30
2022-08-27T09:45:52.776Z,21.30
2022-08-27T09:48:33.719Z,21.30
2022-08-27T09:51:09.965Z,21.10
2022-08-27T09:53:54.854Z,21.10
2022-08-27T09:56:48.420Z,21.10
2022-08-27T09:59:23.600Z,21.30
2022-08-27T10:02:00.988Z,21.40
2022-08-27T10:04:51.008Z,21.20
2022-08-27T10:07:31.906Z,21.30
2022-08-27T10:10:18.077Z,21.40
2022-08-27T10:13:09.160Z,21.30
2022-08-27T10:16:09.901Z,21.30
2022-08-27T10:19:11.203Z,21.50
2022-08-27T10:21:48.308Z,21.40
2022-08-27T10:24:53.229Z,21.50
2022-08-27T10:27:23.261Z,21.50
2022-08-27T10:30:14.821Z,21.60
2022-08-27T10:32:55.202Z,21.70
2022-08-27T10:36:05.290Z,21.60
2022-08-27T10:39:09.201Z,21.60
2022-08-27T10:41:45.718Z,21.60
2022-08-27T10:44:21.895Z,21.70
2022-08-27T10:46:54.767Z,21.80
2022-08-27T10:49:36.715Z,21.80
2022-08-27T10:52:12.737Z,21.60
2022-08-27T10:55:07.207Z,21.80
2022-08-27T10:57:55.562Z,21.70
2022-08-27T11:00:43.158Z,21.90
2022-08-27T11:03:32.336Z,21.80
2022-08-27T11:06:02.088Z,21.80
2022-08-27T11:08:50.222Z,21.80
2022-08-27T11:14:35.569Z,21.70
2022-08-27T11:17:17.819Z,21.60
2022-08-27T11:19:55.781Z,21.90
2022-08-27T11:22:34.660Z,22.50
2022-08-27T11:25:26.506Z,21.40
2022-08-27T11:27:56.479Z,21.30
2022-08-27T11:30:34.839Z,21.50
2022-08-27T11:33:14.078Z,21.80
2022-08-27T11:35:53.321Z,21.90
2022-08-27T11:38:36.278Z,21.80
2022-08-27T11:41:24.258Z,21.50
2022-08-27T11:43:52.614Z,21.90
2022-08-27T11:46:26.560Z,22.00
2022-08-27T11:49:03.465Z,22.30
2022-08-27T11:51:37.035Z,22.50
2022-08-27T11:54:07.869Z,22.50
2022-08-27T11:56:43.344Z,22.00
2022-08-27T11:59:28.640Z,22.10
2022-08-27T12:01:59.810Z,21.70
2022-08-27T12:04:34.928Z,22.20
2022-08-27T12:07:29.821Z,21.90
2022-08-27T12:10:03.762Z,21.60
2022-08-27T12:12:43.515Z,22.10
2022-08-27T12:15:32.905Z,22.00
2022-08-27T12:18:11.623Z,22.70
2022-08-27T12:20:50.875Z,22.20
2022-08-27T12:23:38.692Z,22.30
2022-08-27T12:26:34.590Z,22.50
2022-08-27T12:29:41.161Z,22.60
2022-08-27T12:32:19.906Z,22.30
2022-08-27T12:34:59.132Z,22.20
2022-08-27T12:37:30.794Z,22.30
2022-08-27T12:40:02.503Z,21.90
2022-08-27T12:42:29.601Z,22.20
2022-08-27T12:44:58.069Z,22.20
2022-08-27T12:47:25.078Z,22.20
2022-08-27T12:50:00.994Z,22.50
2022-08-27T12:52:59.060Z,22.80
2022-08-27T12:55:30.741Z,22.20
2022-08-27T12:58:03.383Z,22.40
2022-08-27T13:00:38.545Z,22.70
2022-08-27T13:03:19.563Z,22.60
2022-08-27T13:05:49.568Z,22.60
2022-08-27T13:08:26.696Z,22.50
2022-08-27T13:10:54.092Z,22.30
2022-08-27T13:13:25.101Z,22.80
2022-08-27T13:15:58.714Z,22.50
2022-08-27T13:18:29.995Z,22.60
2022-08-27T13:21:20.653Z,22.60
2022-08-27T13:23:56.092Z,22.50
2022-08-27T13:26:26.675Z,22.50
2022-08-27T13:28:53.977Z,22.60
2022-08-27T13:31:23.403Z,22.40
2022-08-27T13:33:50.918Z,22.40
2022-08-27T13:36:36.721Z,22.30
2022-08-27T13:39:05.892Z,22.30
2022-08-27T13:41:36.566Z,22.80
2022-08-27T13:44:18.418Z,22.60
2022-08-27T13:46:53.422Z,22.60
2022-08-27T13:49:25.645Z,22.40
2022-08-27T13:52:23.174Z,22.10
2022-08-27T13:55:06.219Z,22.40
2022-08-27T13:57:46.926Z,22.50
2022-08-27T14:00:23.309Z,22.60
2022-08-27T14:02:55.352Z,22.70
2022-08-27T14:05:23.284Z,22.50
2022-08-27T14:07:53.319Z,22.50
2022-08-27T14:10:59.110Z,22.70
2022-08-27T14:13:28.937Z,22.80
2022-08-27T14:15:58.486Z,22.60
2022-08-27T14:21:25.175Z,22.00
2022-08-27T14:23:54.077Z,22.30
2022-08-27T14:26:21.290Z,22.30
2022-08-27T14:28:48.182Z,22.60
2022-08-27T14:31:15.433Z,22.20
2022-08-27T14:33:42.325Z,22.60
2022-08-27T14:36:09.730Z,22.30
2022-08-27T14:38:41.074Z,22.40
2022-08-27T14:41:08.478Z,22.30
2022-08-27T14:43:35.425Z,22.10
2022-08-27T14:46:04.004Z,22.20
2022-08-27T14:48:34.581Z,22.30
2022-08-27T14:51:09.508Z,22.20
2022-08-27T14:53:36.328Z,22.50
2022-08-27T14:56:03.381Z,22.30
2022-08-27T14:58:30.285Z,22.50
2022-08-27T15:00:57.865Z,22.50
2022-08-27T15:03:28.340Z,22.60
2022-08-27T15:05:56.254Z,22.00
2022-08-27T15:08:29.124Z,21.90
2022-08-27T15:10:56.972Z,21.60
2022-08-27T15:13:24.202Z,21.90
2022-08-27T15:15:52.440Z,22.10
2022-08-27T15:18:20.220Z,21.90
2022-08-27T15:20:47.573Z,21.60
2022-08-27T15:23:15.848Z,22.00
2022-08-27T15:25:44.639Z,22.00
2022-08-27T15:28:11.827Z,21.90
2022-08-27T15:30:38.904Z,22.40
2022-08-27T15:33:06.474Z,22.00
2022-08-27T15:35:33.961Z,21.60
2022-08-27T15:38:01.142Z,21.50
2022-08-27T15:40:34.460Z,21.60
2022-08-27T15:43:05.086Z,21.40
2022-08-27T15:45:32.790Z,21.80
2022-08-27T15:48:00.193Z,21.90
2022-08-27T15:50:28.853Z,21.60
2022-08-27T15:53:01.284Z,21.60
2022-08-27T15:55:33.924Z,21.60
2022-08-27T15:58:01.456Z,21.80
2022-08-27T16:00:32.488Z,21.60
2022-08-27T16:03:00.304Z,21.70
2022-08-27T16:05:31.405Z,21.90
2022-08-27T16:07:58.163Z,21.10
2022-08-27T16:10:25.692Z,21.30
2022-08-27T16:12:52.820Z,21.10
2022-08-27T16:15:19.795Z,21.00
2022-08-27T16:17:46.874Z,21.00
2022-08-27T16:20:15.558Z,21.40
2022-08-27T16:22:42.580Z,21.10
2022-08-27T16:25:12.321Z,21.20
2022-08-27T16:27:42.229Z,21.40
2022-08-27T16:30:09.643Z,21.50
2022-08-27T16:32:36.343Z,21.10
2022-08-27T16:35:03.660Z,21.50
2022-08-27T16:37:31.832Z,21.50
2022-08-27T16:39:58.965Z,21.30
2022-08-27T16:42:25.729Z,21.40
2022-08-27T16:44:52.825Z,21.20
2022-08-27T16:47:19.549Z,21.30
2022-08-27T16:50:05.143Z,21.60
2022-08-27T16:52:31.908Z,21.40
2022-08-27T16:55:00.122Z,21.50
2022-08-27T16:57:27.025Z,21.10
2022-08-27T16:59:55.061Z,20.90
2022-08-27T17:02:30.075Z,20.80
2022-08-27T17:05:07.224Z,20.60
2022-08-27T17:07:44.519Z,20.70
2022-08-27T17:10:17.605Z,21.00
2022-08-27T17:12:47.946Z,21.20
2022-08-27T17:15:18.564Z,21.20
2022-08-27T17:17:46.003Z,20.60
2022-08-27T17:20:15.214Z,20.70
2022-08-27T17:22:42.807Z,21.00
2022-08-27T17:25:10.621Z,20.70
2022-08-27T17:27:37.581Z,20.80
2022-08-27T17:30:06.024Z,21.00
2022-08-27T17:32:37.498Z,20.60
2022-08-27T17:35:06.929Z,20.80
2022-08-27T17:37:35.079Z,20.70
2022-08-27T17:40:02.115Z,20.70
2022-08-27T17:42:29.774Z,20.20
2022-08-27T17:44:56.752Z,20.40
2022-08-27T17:47:25.000Z,20.80
2022-08-27T17:49:53.324Z,20.80
2022-08-27T17:52:40.292Z,20.80
2022-08-27T17:55:08.511Z,21.10
2022-08-27T17:57:41.015Z,20.70
2022-08-27T18:00:10.708Z,20.40
2022-08-27T18:02:44.420Z,20.30
2022-08-27T18:05:13.876Z,20.00
2022-08-27T18:07:42.613Z,20.70
2022-08-27T18:10:11.518Z,20.50
2022-08-27T18:12:40.198Z,20.40
2022-08-27T18:15:07.596Z,20.10
2022-08-27T18:17:35.952Z,20.40
2022-08-27T18:20:06.059Z,20.20
2022-08-27T18:22:36.081Z,20.10
2022-08-27T18:25:08.273Z,19.80
2022-08-27T18:27:36.508Z,20.00
2022-08-27T18:30:04.610Z,20.10
2022-08-27T18:32:31.546Z,20.00
2022-08-27T18:35:03.170Z,19.70
2022-08-27T18:37:31.151Z,20.10
2022-08-27T18:39:57.914Z,20.20
2022-08-27T18:42:24.803Z,20.30
2022-08-27T18:44:53.637Z,19.90
2022-08-27T18:47:20.499Z,20.10
2022-08-27T18:49:47.295Z,20.20
2022-08-27T18:52:14.079Z,20.10
2022-08-27T18:54:42.839Z,19.90
2022-08-27T18:57:09.658Z,20.10
2022-08-27T18:59:36.436Z,20.00
2022-08-27T19:02:03.358Z,19.70
2022-08-27T19:04:33.754Z,20.00
2022-08-27T19:07:00.736Z,20.10
2022-08-27T19:09:27.828Z,19.80
2022-08-27T19:11:54.546Z,19.90
2022-08-27T19:14:21.373Z,19.90
2022-08-27T19:16:55.769Z,19.80
2022-08-27T19:19:24.904Z,19.70
2022-08-27T19:21:52.163Z,19.60
2022-08-27T19:24:21.318Z,19.90
2022-08-27T19:26:49.902Z,19.90
2022-08-27T19:29:16.765Z,19.90
2022-08-27T19:31:43.550Z,19.90
2022-08-27T19:34:10.684Z,19.70
2022-08-27T19:36:40.798Z,19.90
2022-08-27T19:39:10.045Z,20.10
2022-08-27T19:41:36.819Z,20.10
2022-08-27T19:44:03.838Z,19.60
2022-08-27T19:46:32.777Z,19.50
2022-08-27T19:48:59.468Z,19.80
2022-08-27T19:51:26.251Z,19.60
2022-08-27T19:53:53.034Z,19.80
2022-08-27T19:56:20.135Z,19.80
2022-08-27T19:58:47.309Z,19.50
2022-08-27T20:01:14.169Z,20.10
2022-08-27T20:03:41.305Z,20.40
2022-08-27T20:06:08.407Z,20.30
2022-08-27T20:08:35.220Z,20.60
2022-08-27T20:11:01.964Z,20.60
2022-08-27T20:13:32.867Z,20.40
2022-08-27T20:16:00.501Z,20.30
2022-08-27T20:18:27.331Z,20.40
2022-08-27T20:20:54.516Z,20.40
2022-08-27T20:23:21.234Z,20.00
2022-08-27T20:25:47.910Z,20.50
2022-08-27T20:28:37.827Z,20.40
2022-08-27T20:31:02.117Z,20.50
2022-08-27T20:33:28.920Z,20.20
2022-08-27T20:35:58.579Z,20.30
2022-08-27T20:38:25.499Z,20.20
2022-08-27T20:40:52.221Z,20.60
2022-08-27T20:43:18.934Z,20.60
2022-08-27T20:45:45.813Z,20.60
2022-08-27T20:48:13.231Z,20.50
2022-08-27T20:50:40.095Z,20.40
2022-08-27T20:53:06.881Z,20.80
2022-08-27T20:55:33.948Z,20.60
2022-08-27T20:58:19.159Z,20.40
2022-08-27T21:00:45.992Z,20.40
2022-08-27T21:03:14.372Z,20.70
2022-08-27T21:05:43.636Z,21.00
2022-08-27T21:08:10.843Z,21.00
2022-08-27T21:10:47.782Z,21.00
2022-08-27T21:13:15.537Z,21.10
2022-08-27T21:15:42.307Z,20.70
2022-08-27T21:18:09.069Z,21.00
2022-08-27T21:20:35.818Z,21.00
2022-08-27T21:23:02.638Z,20.90
2022-08-27T21:25:29.411Z,21.10
2022-08-27T21:27:57.776Z,21.20
2022-08-27T21:30:26.403Z,21.20
2022-08-27T21:32:55.857Z,21.30
2022-08-27T21:35:26.732Z,21.30
2022-08-27T21:37:58.249Z,21.40
2022-08-27T21:40:26.362Z,21.30
2022-08-27T21:42:53.487Z,21.20
2022-08-27T21:45:20.595Z,21.20
2022-08-27T21:47:47.487Z,21.30
2022-08-27T21:50:15.726Z,21.30
2022-08-27T21:52:42.523Z,21.30
2022-08-27T21:55:10.175Z,21.30
2022-08-27T21:57:36.960Z,21.40
2022-08-27T22:00:29.312Z,21.40
2022-08-27T22:02:56.889Z,21.40
2022-08-27T22:05:24.422Z,21.40
2022-08-27T22:07:51.356Z,21.40
2022-08-27T22:10:18.165Z,21.40
2022-08-27T22:12:44.851Z,21.40
2022-08-27T22:15:11.867Z,21.50
2022-08-27T22:17:38.549Z,21.40
2022-08-27T22:20:08.642Z,21.40
2022-08-27T22:22:35.565Z,21.40
2022-08-27T22:25:02.837Z,21.40
2022-08-27T22:27:29.636Z,21.40
2022-08-27T22:29:56.417Z,21.40
2022-08-27T22:32:23.171Z,21.40
2022-08-27T22:34:49.856Z,21.40
2022-08-27T22:37:16.610Z,21.40
2022-08-27T22:39:43.300Z,21.40
2022-08-27T22:42:10.018Z,21.40
2022-08-27T22:44:40.638Z,21.40
2022-08-27T22:47:07.338Z,21.40
2022-08-27T22:49:34.456Z,21.40
2022-08-27T22:52:01.119Z,21.40
2022-08-27T22:54:27.871Z,21.50
2022-08-27T22:56:54.523Z,21.50
2022-08-27T22:59:21.280Z,21.50
2022-08-27T23:01:47.966Z,21.50
2022-08-27T23:04:14.792Z,21.50
2022-08-27T23:06:41.764Z,21.40
2022-08-27T23:09:08.551Z,21.50
2022-08-27T23:11:35.521Z,21.50
2022-08-27T23:14:02.409Z,21.50
2022-08-27T23:16:31.735Z,21.50
2022-08-27T23:18:58.592Z,21.50
2022-08-27T23:21:25.671Z,21.50
2022-08-27T23:23:52.393Z,21.50
2022-08-27T23:26:38.069Z,21.50
2022-08-27T23:29:05.423Z,21.50
2022-08-27T23:31:32.199Z,21.50
2022-08-27T23:33:58.988Z,21.40
2022-08-27T23:36:26.268Z,21.50
2022-08-27T23:38:53.065Z,21.50
2022-08-27T23:41:19.834Z,21.50
2022-08-27T23:43:46.907Z,21.50
2022-08-27T23:46:13.704Z,21.50
2022-08-27T23:48:40.516Z,21.50
2022-08-27T23:51:08.629Z,21.50
2022-08-27T23:53:37.002Z,21.50
2022-08-27T23:56:04.963Z,21.50
2022-08-27T23:58:32.682Z,21.40
